sensor_id;sensor_type;location;lat;lon;timestamp;P1;durP1;ratioP1;P2;durP2;ratioP2
22490;SDS011;11412;50.802;4.350;2022-12-18T00:01:18;26.60;;;16.10;;
22490;SDS011;11412;50.802;4.350;2022-12-18T00:03:45;23.52;;;15.30;;
22490;SDS011;11412;50.802;4.350;2022-12-18T00:06:11;21.67;;;15.68;;
22490;SDS011;11412;50.802;4.350;2022-12-18T00:08:38;25.23;;;16.38;;
22490;SDS011;11412;50.802;4.350;2022-12-18T00:11:10;22.08;;;15.25;;
22490;SDS011;11412;50.802;4.350;2022-12-18T00:13:37;25.25;;;16.15;;
22490;SDS011;11412;50.802;4.350;2022-12-18T00:16:03;22.98;;;15.70;;
22490;SDS011;11412;50.802;4.350;2022-12-18T00:18:31;25.00;;;17.13;;
22490;SDS011;11412;50.802;4.350;2022-12-18T00:21:04;23.33;;;15.63;;
22490;SDS011;11412;50.802;4.350;2022-12-18T00:23:32;23.33;;;15.93;;
22490;SDS011;11412;50.802;4.350;2022-12-18T00:25:59;23.15;;;16.08;;
22490;SDS011;11412;50.802;4.350;2022-12-18T00:28:26;25.15;;;16.52;;
22490;SDS011;11412;50.802;4.350;2022-12-18T00:31:13;22.73;;;16.02;;
22490;SDS011;11412;50.802;4.350;2022-12-18T00:33:39;27.45;;;17.05;;
22490;SDS011;11412;50.802;4.350;2022-12-18T00:36:06;23.65;;;15.70;;
22490;SDS011;11412;50.802;4.350;2022-12-18T00:38:35;23.17;;;16.25;;
22490;SDS011;11412;50.802;4.350;2022-12-18T00:41:01;23.05;;;16.35;;
22490;SDS011;11412;50.802;4.350;2022-12-18T00:43:27;25.27;;;16.55;;
22490;SDS011;11412;50.802;4.350;2022-12-18T00:45:53;22.08;;;15.40;;
22490;SDS011;11412;50.802;4.350;2022-12-18T00:48:18;23.00;;;14.70;;
22490;SDS011;11412;50.802;4.350;2022-12-18T00:50:44;21.65;;;15.95;;
22490;SDS011;11412;50.802;4.350;2022-12-18T00:53:10;20.65;;;14.65;;
22490;SDS011;11412;50.802;4.350;2022-12-18T00:55:40;19.38;;;13.63;;
22490;SDS011;11412;50.802;4.350;2022-12-18T00:58:06;21.60;;;15.63;;
22490;SDS011;11412;50.802;4.350;2022-12-18T01:00:32;23.27;;;14.90;;
22490;SDS011;11412;50.802;4.350;2022-12-18T01:02:58;21.05;;;13.85;;
22490;SDS011;11412;50.802;4.350;2022-12-18T01:05:24;20.85;;;14.07;;
22490;SDS011;11412;50.802;4.350;2022-12-18T01:07:50;19.48;;;13.05;;
22490;SDS011;11412;50.802;4.350;2022-12-18T01:10:16;17.20;;;13.23;;
22490;SDS011;11412;50.802;4.350;2022-12-18T01:12:42;18.42;;;12.80;;
22490;SDS011;11412;50.802;4.350;2022-12-18T01:15:09;17.83;;;12.73;;
22490;SDS011;11412;50.802;4.350;2022-12-18T01:17:36;17.40;;;11.93;;
22490;SDS011;11412;50.802;4.350;2022-12-18T01:20:02;16.42;;;11.43;;
22490;SDS011;11412;50.802;4.350;2022-12-18T01:22:29;15.70;;;10.90;;
22490;SDS011;11412;50.802;4.350;2022-12-18T01:24:54;17.67;;;11.32;;
22490;SDS011;11412;50.802;4.350;2022-12-18T01:27:20;16.17;;;10.98;;
22490;SDS011;11412;50.802;4.350;2022-12-18T01:29:45;15.02;;;10.13;;
22490;SDS011;11412;50.802;4.350;2022-12-18T01:32:11;15.68;;;10.40;;
22490;SDS011;11412;50.802;4.350;2022-12-18T01:34:37;14.93;;;9.65;;
22490;SDS011;11412;50.802;4.350;2022-12-18T01:37:03;14.82;;;9.98;;
22490;SDS011;11412;50.802;4.350;2022-12-18T01:39:29;14.15;;;10.07;;
22490;SDS011;11412;50.802;4.350;2022-12-18T01:41:56;13.48;;;9.77;;
22490;SDS011;11412;50.802;4.350;2022-12-18T01:50:20;10.95;;;8.68;;
22490;SDS011;11412;50.802;4.350;2022-12-18T01:52:47;11.13;;;8.63;;
22490;SDS011;11412;50.802;4.350;2022-12-18T01:55:16;12.20;;;8.63;;
22490;SDS011;11412;50.802;4.350;2022-12-18T01:57:44;11.75;;;9.07;;
22490;SDS011;11412;50.802;4.350;2022-12-18T02:00:11;12.13;;;8.73;;
22490;SDS011;11412;50.802;4.350;2022-12-18T02:02:43;12.45;;;8.48;;
22490;SDS011;11412;50.802;4.350;2022-12-18T02:05:11;12.07;;;8.60;;
22490;SDS011;11412;50.802;4.350;2022-12-18T02:07:49;11.00;;;8.35;;
22490;SDS011;11412;50.802;4.350;2022-12-18T02:10:43;11.15;;;7.75;;
22490;SDS011;11412;50.802;4.350;2022-12-18T02:16:03;12.38;;;8.43;;
22490;SDS011;11412;50.802;4.350;2022-12-18T02:18:35;12.63;;;8.70;;
22490;SDS011;11412;50.802;4.350;2022-12-18T02:23:45;11.73;;;7.95;;
22490;SDS011;11412;50.802;4.350;2022-12-18T02:26:18;10.73;;;8.23;;
22490;SDS011;11412;50.802;4.350;2022-12-18T02:31:35;10.80;;;7.80;;
22490;SDS011;11412;50.802;4.350;2022-12-18T02:34:07;13.77;;;8.88;;
22490;SDS011;11412;50.802;4.350;2022-12-18T02:36:35;10.88;;;8.07;;
22490;SDS011;11412;50.802;4.350;2022-12-18T02:39:04;13.35;;;8.82;;
22490;SDS011;11412;50.802;4.350;2022-12-18T02:41:32;12.25;;;8.50;;
22490;SDS011;11412;50.802;4.350;2022-12-18T02:44:00;13.80;;;9.10;;
22490;SDS011;11412;50.802;4.350;2022-12-18T02:46:28;11.73;;;8.65;;
22490;SDS011;11412;50.802;4.350;2022-12-18T02:48:57;12.93;;;9.00;;
22490;SDS011;11412;50.802;4.350;2022-12-18T02:51:32;12.65;;;8.70;;
22490;SDS011;11412;50.802;4.350;2022-12-18T02:54:10;13.70;;;9.07;;
22490;SDS011;11412;50.802;4.350;2022-12-18T02:57:12;15.13;;;9.18;;
22490;SDS011;11412;50.802;4.350;2022-12-18T02:59:49;12.25;;;8.98;;
22490;SDS011;11412;50.802;4.350;2022-12-18T03:02:28;13.65;;;9.45;;
22490;SDS011;11412;50.802;4.350;2022-12-18T03:10:42;14.68;;;9.32;;
22490;SDS011;11412;50.802;4.350;2022-12-18T03:13:20;13.45;;;8.52;;
22490;SDS011;11412;50.802;4.350;2022-12-18T03:15:50;14.00;;;9.45;;
22490;SDS011;11412;50.802;4.350;2022-12-18T03:18:24;14.98;;;10.07;;
22490;SDS011;11412;50.802;4.350;2022-12-18T03:21:10;14.43;;;9.63;;
22490;SDS011;11412;50.802;4.350;2022-12-18T03:23:43;14.65;;;9.95;;
22490;SDS011;11412;50.802;4.350;2022-12-18T03:26:12;14.75;;;10.02;;
22490;SDS011;11412;50.802;4.350;2022-12-18T03:28:48;15.30;;;10.27;;
22490;SDS011;11412;50.802;4.350;2022-12-18T03:31:17;14.00;;;9.40;;
22490;SDS011;11412;50.802;4.350;2022-12-18T03:33:56;13.38;;;8.82;;
22490;SDS011;11412;50.802;4.350;2022-12-18T03:36:24;13.80;;;10.02;;
22490;SDS011;11412;50.802;4.350;2022-12-18T03:38:51;12.90;;;9.50;;
22490;SDS011;11412;50.802;4.350;2022-12-18T03:41:31;14.13;;;9.82;;
22490;SDS011;11412;50.802;4.350;2022-12-18T03:46:38;12.77;;;9.23;;
22490;SDS011;11412;50.802;4.350;2022-12-18T03:49:28;15.25;;;9.55;;
22490;SDS011;11412;50.802;4.350;2022-12-18T03:52:05;14.05;;;9.02;;
22490;SDS011;11412;50.802;4.350;2022-12-18T03:54:35;12.20;;;8.82;;
22490;SDS011;11412;50.802;4.350;2022-12-18T03:57:06;14.75;;;9.85;;
22490;SDS011;11412;50.802;4.350;2022-12-18T03:59:45;10.75;;;8.43;;
22490;SDS011;11412;50.802;4.350;2022-12-18T04:02:12;12.90;;;8.57;;
22490;SDS011;11412;50.802;4.350;2022-12-18T04:04:40;14.25;;;9.13;;
22490;SDS011;11412;50.802;4.350;2022-12-18T04:07:07;12.18;;;8.25;;
22490;SDS011;11412;50.802;4.350;2022-12-18T04:09:34;12.65;;;8.90;;
22490;SDS011;11412;50.802;4.350;2022-12-18T04:12:03;10.88;;;8.68;;
22490;SDS011;11412;50.802;4.350;2022-12-18T04:14:29;12.43;;;8.75;;
22490;SDS011;11412;50.802;4.350;2022-12-18T04:16:54;12.35;;;8.55;;
22490;SDS011;11412;50.802;4.350;2022-12-18T04:19:20;11.85;;;8.65;;
22490;SDS011;11412;50.802;4.350;2022-12-18T04:21:45;12.55;;;9.25;;
22490;SDS011;11412;50.802;4.350;2022-12-18T04:24:11;12.32;;;8.55;;
22490;SDS011;11412;50.802;4.350;2022-12-18T04:26:37;12.25;;;8.20;;
22490;SDS011;11412;50.802;4.350;2022-12-18T04:29:03;13.43;;;8.60;;
22490;SDS011;11412;50.802;4.350;2022-12-18T04:31:29;11.45;;;8.25;;
22490;SDS011;11412;50.802;4.350;2022-12-18T04:33:54;9.93;;;7.95;;
22490;SDS011;11412;50.802;4.350;2022-12-18T04:36:20;12.80;;;8.38;;
22490;SDS011;11412;50.802;4.350;2022-12-18T04:38:46;13.75;;;8.40;;
22490;SDS011;11412;50.802;4.350;2022-12-18T04:41:11;12.18;;;8.52;;
22490;SDS011;11412;50.802;4.350;2022-12-18T04:43:37;12.23;;;8.43;;
22490;SDS011;11412;50.802;4.350;2022-12-18T04:46:03;12.50;;;8.23;;
22490;SDS011;11412;50.802;4.350;2022-12-18T04:48:33;11.68;;;7.93;;
22490;SDS011;11412;50.802;4.350;2022-12-18T04:50:59;11.48;;;8.18;;
22490;SDS011;11412;50.802;4.350;2022-12-18T04:53:25;11.70;;;8.18;;
22490;SDS011;11412;50.802;4.350;2022-12-18T04:55:50;12.20;;;7.63;;
22490;SDS011;11412;50.802;4.350;2022-12-18T04:58:27;12.70;;;8.65;;
22490;SDS011;11412;50.802;4.350;2022-12-18T05:00:52;11.23;;;7.90;;
22490;SDS011;11412;50.802;4.350;2022-12-18T05:03:18;11.35;;;7.93;;
22490;SDS011;11412;50.802;4.350;2022-12-18T05:05:43;12.27;;;8.00;;
22490;SDS011;11412;50.802;4.350;2022-12-18T05:08:09;13.75;;;9.15;;
22490;SDS011;11412;50.802;4.350;2022-12-18T05:10:34;11.55;;;8.40;;
22490;SDS011;11412;50.802;4.350;2022-12-18T05:13:00;13.00;;;7.97;;
22490;SDS011;11412;50.802;4.350;2022-12-18T05:15:29;11.60;;;8.15;;
22490;SDS011;11412;50.802;4.350;2022-12-18T05:17:56;13.15;;;9.05;;
22490;SDS011;11412;50.802;4.350;2022-12-18T05:20:23;14.32;;;8.43;;
22490;SDS011;11412;50.802;4.350;2022-12-18T05:22:49;11.32;;;7.65;;
22490;SDS011;11412;50.802;4.350;2022-12-18T05:25:15;14.13;;;8.40;;
22490;SDS011;11412;50.802;4.350;2022-12-18T05:27:41;11.70;;;8.35;;
22490;SDS011;11412;50.802;4.350;2022-12-18T05:30:07;10.05;;;7.85;;
22490;SDS011;11412;50.802;4.350;2022-12-18T05:32:33;11.85;;;7.45;;
22490;SDS011;11412;50.802;4.350;2022-12-18T05:34:59;9.90;;;7.15;;
22490;SDS011;11412;50.802;4.350;2022-12-18T05:37:24;10.10;;;6.82;;
22490;SDS011;11412;50.802;4.350;2022-12-18T05:39:50;11.75;;;8.10;;
22490;SDS011;11412;50.802;4.350;2022-12-18T05:42:16;11.27;;;7.60;;
22490;SDS011;11412;50.802;4.350;2022-12-18T05:44:42;15.15;;;8.13;;
22490;SDS011;11412;50.802;4.350;2022-12-18T05:47:08;10.82;;;7.45;;
22490;SDS011;11412;50.802;4.350;2022-12-18T05:49:34;9.02;;;6.63;;
22490;SDS011;11412;50.802;4.350;2022-12-18T05:52:00;13.68;;;8.13;;
22490;SDS011;11412;50.802;4.350;2022-12-18T05:54:29;10.15;;;7.53;;
22490;SDS011;11412;50.802;4.350;2022-12-18T05:56:56;11.80;;;7.82;;
22490;SDS011;11412;50.802;4.350;2022-12-18T05:59:22;10.15;;;7.60;;
22490;SDS011;11412;50.802;4.350;2022-12-18T06:01:47;11.43;;;7.75;;
22490;SDS011;11412;50.802;4.350;2022-12-18T06:04:13;11.35;;;7.70;;
22490;SDS011;11412;50.802;4.350;2022-12-18T06:06:39;12.23;;;7.80;;
22490;SDS011;11412;50.802;4.350;2022-12-18T06:09:05;12.27;;;7.90;;
22490;SDS011;11412;50.802;4.350;2022-12-18T06:11:33;10.27;;;7.13;;
22490;SDS011;11412;50.802;4.350;2022-12-18T06:14:00;9.55;;;6.85;;
22490;SDS011;11412;50.802;4.350;2022-12-18T06:16:28;9.77;;;6.90;;
22490;SDS011;11412;50.802;4.350;2022-12-18T06:19:00;9.27;;;6.90;;
22490;SDS011;11412;50.802;4.350;2022-12-18T06:21:27;11.27;;;7.20;;
22490;SDS011;11412;50.802;4.350;2022-12-18T06:23:55;9.57;;;6.50;;
22490;SDS011;11412;50.802;4.350;2022-12-18T06:26:20;10.45;;;6.47;;
22490;SDS011;11412;50.802;4.350;2022-12-18T06:28:46;9.85;;;6.47;;
22490;SDS011;11412;50.802;4.350;2022-12-18T06:31:12;10.25;;;6.93;;
22490;SDS011;11412;50.802;4.350;2022-12-18T06:33:38;11.13;;;7.47;;
22490;SDS011;11412;50.802;4.350;2022-12-18T06:38:31;9.75;;;7.15;;
22490;SDS011;11412;50.802;4.350;2022-12-18T06:40:58;11.15;;;7.32;;
22490;SDS011;11412;50.802;4.350;2022-12-18T06:43:24;10.30;;;6.82;;
22490;SDS011;11412;50.802;4.350;2022-12-18T06:45:49;9.85;;;7.30;;
22490;SDS011;11412;50.802;4.350;2022-12-18T06:48:20;9.32;;;6.07;;
22490;SDS011;11412;50.802;4.350;2022-12-18T06:50:46;10.15;;;6.55;;
22490;SDS011;11412;50.802;4.350;2022-12-18T06:53:12;8.48;;;7.15;;
22490;SDS011;11412;50.802;4.350;2022-12-18T06:55:38;9.77;;;6.80;;
22490;SDS011;11412;50.802;4.350;2022-12-18T06:58:04;9.93;;;7.28;;
22490;SDS011;11412;50.802;4.350;2022-12-18T07:00:29;9.40;;;7.05;;
22490;SDS011;11412;50.802;4.350;2022-12-18T07:02:55;8.18;;;6.97;;
22490;SDS011;11412;50.802;4.350;2022-12-18T07:05:21;10.02;;;7.00;;
22490;SDS011;11412;50.802;4.350;2022-12-18T07:07:46;8.93;;;7.13;;
22490;SDS011;11412;50.802;4.350;2022-12-18T07:10:12;8.52;;;7.07;;
22490;SDS011;11412;50.802;4.350;2022-12-18T07:12:38;9.50;;;7.00;;
22490;SDS011;11412;50.802;4.350;2022-12-18T07:15:03;7.72;;;6.68;;
22490;SDS011;11412;50.802;4.350;2022-12-18T07:17:30;9.68;;;7.53;;
22490;SDS011;11412;50.802;4.350;2022-12-18T07:19:55;10.30;;;7.10;;
22490;SDS011;11412;50.802;4.350;2022-12-18T07:22:21;8.27;;;6.75;;
22490;SDS011;11412;50.802;4.350;2022-12-18T07:24:47;8.55;;;6.60;;
22490;SDS011;11412;50.802;4.350;2022-12-18T07:27:12;9.32;;;7.22;;
22490;SDS011;11412;50.802;4.350;2022-12-18T07:29:38;9.52;;;7.22;;
22490;SDS011;11412;50.802;4.350;2022-12-18T07:32:04;8.65;;;6.90;;
22490;SDS011;11412;50.802;4.350;2022-12-18T07:34:29;11.00;;;7.10;;
22490;SDS011;11412;50.802;4.350;2022-12-18T07:36:55;9.52;;;7.10;;
22490;SDS011;11412;50.802;4.350;2022-12-18T07:39:21;8.95;;;7.75;;
22490;SDS011;11412;50.802;4.350;2022-12-18T07:41:46;10.93;;;7.28;;
22490;SDS011;11412;50.802;4.350;2022-12-18T07:44:32;10.30;;;7.72;;
22490;SDS011;11412;50.802;4.350;2022-12-18T07:46:58;8.35;;;6.75;;
22490;SDS011;11412;50.802;4.350;2022-12-18T07:49:23;8.48;;;7.20;;
22490;SDS011;11412;50.802;4.350;2022-12-18T07:51:49;10.75;;;7.07;;
22490;SDS011;11412;50.802;4.350;2022-12-18T07:54:15;9.18;;;7.22;;
22490;SDS011;11412;50.802;4.350;2022-12-18T07:56:40;8.48;;;7.00;;
22490;SDS011;11412;50.802;4.350;2022-12-18T07:59:06;7.70;;;6.15;;
22490;SDS011;11412;50.802;4.350;2022-12-18T08:01:32;8.85;;;6.90;;
22490;SDS011;11412;50.802;4.350;2022-12-18T08:03:58;8.70;;;6.90;;
22490;SDS011;11412;50.802;4.350;2022-12-18T08:06:24;8.15;;;6.65;;
22490;SDS011;11412;50.802;4.350;2022-12-18T08:08:53;9.20;;;7.22;;
22490;SDS011;11412;50.802;4.350;2022-12-18T08:11:20;8.80;;;7.03;;
22490;SDS011;11412;50.802;4.350;2022-12-18T08:13:46;9.23;;;6.55;;
22490;SDS011;11412;50.802;4.350;2022-12-18T08:16:12;9.05;;;6.85;;
22490;SDS011;11412;50.802;4.350;2022-12-18T08:18:37;8.88;;;6.60;;
22490;SDS011;11412;50.802;4.350;2022-12-18T08:21:14;10.82;;;6.80;;
22490;SDS011;11412;50.802;4.350;2022-12-18T08:23:41;9.48;;;6.85;;
22490;SDS011;11412;50.802;4.350;2022-12-18T08:26:07;8.27;;;6.40;;
22490;SDS011;11412;50.802;4.350;2022-12-18T08:28:33;10.27;;;7.50;;
22490;SDS011;11412;50.802;4.350;2022-12-18T08:30:59;10.50;;;7.15;;
22490;SDS011;11412;50.802;4.350;2022-12-18T08:33:25;8.82;;;6.93;;
22490;SDS011;11412;50.802;4.350;2022-12-18T08:35:51;8.82;;;6.35;;
22490;SDS011;11412;50.802;4.350;2022-12-18T08:38:17;10.32;;;7.07;;
22490;SDS011;11412;50.802;4.350;2022-12-18T08:40:43;11.48;;;7.18;;
22490;SDS011;11412;50.802;4.350;2022-12-18T08:43:11;7.90;;;6.78;;
22490;SDS011;11412;50.802;4.350;2022-12-18T08:45:56;10.13;;;6.78;;
22490;SDS011;11412;50.802;4.350;2022-12-18T08:48:22;8.88;;;7.32;;
22490;SDS011;11412;50.802;4.350;2022-12-18T08:50:57;7.93;;;6.75;;
22490;SDS011;11412;50.802;4.350;2022-12-18T08:53:24;10.57;;;7.03;;
22490;SDS011;11412;50.802;4.350;2022-12-18T08:55:49;8.77;;;7.07;;
22490;SDS011;11412;50.802;4.350;2022-12-18T08:58:15;10.20;;;7.30;;
22490;SDS011;11412;50.802;4.350;2022-12-18T09:00:40;9.30;;;7.18;;
22490;SDS011;11412;50.802;4.350;2022-12-18T09:03:10;10.90;;;7.57;;
22490;SDS011;11412;50.802;4.350;2022-12-18T09:05:40;11.18;;;7.53;;
22490;SDS011;11412;50.802;4.350;2022-12-18T09:08:06;9.52;;;6.97;;
22490;SDS011;11412;50.802;4.350;2022-12-18T09:10:32;9.95;;;7.35;;
22490;SDS011;11412;50.802;4.350;2022-12-18T09:12:58;9.00;;;6.75;;
22490;SDS011;11412;50.802;4.350;2022-12-18T09:15:25;10.10;;;7.50;;
22490;SDS011;11412;50.802;4.350;2022-12-18T09:17:51;11.10;;;8.43;;
22490;SDS011;11412;50.802;4.350;2022-12-18T09:20:17;17.13;;;9.27;;
22490;SDS011;11412;50.802;4.350;2022-12-18T09:22:43;11.48;;;7.35;;
22490;SDS011;11412;50.802;4.350;2022-12-18T09:25:09;11.52;;;8.48;;
22490;SDS011;11412;50.802;4.350;2022-12-18T09:27:35;12.95;;;8.95;;
22490;SDS011;11412;50.802;4.350;2022-12-18T09:30:01;12.55;;;8.07;;
22490;SDS011;11412;50.802;4.350;2022-12-18T09:32:26;15.07;;;8.77;;
22490;SDS011;11412;50.802;4.350;2022-12-18T09:34:52;11.75;;;8.15;;
22490;SDS011;11412;50.802;4.350;2022-12-18T09:37:18;12.20;;;7.80;;
22490;SDS011;11412;50.802;4.350;2022-12-18T09:39:43;11.57;;;8.50;;
22490;SDS011;11412;50.802;4.350;2022-12-18T09:42:14;15.05;;;9.18;;
22490;SDS011;11412;50.802;4.350;2022-12-18T09:44:47;12.13;;;8.38;;
22490;SDS011;11412;50.802;4.350;2022-12-18T09:49:52;12.52;;;8.45;;
22490;SDS011;11412;50.802;4.350;2022-12-18T09:52:39;11.45;;;8.68;;
22490;SDS011;11412;50.802;4.350;2022-12-18T09:57:39;14.27;;;9.52;;
22490;SDS011;11412;50.802;4.350;2022-12-18T10:00:21;12.43;;;8.63;;
22490;SDS011;11412;50.802;4.350;2022-12-18T10:02:48;13.60;;;8.90;;
22490;SDS011;11412;50.802;4.350;2022-12-18T10:05:17;12.27;;;9.18;;
22490;SDS011;11412;50.802;4.350;2022-12-18T10:08:05;12.05;;;8.57;;
22490;SDS011;11412;50.802;4.350;2022-12-18T10:10:52;11.85;;;8.10;;
22490;SDS011;11412;50.802;4.350;2022-12-18T10:29:55;12.27;;;8.50;;
22490;SDS011;11412;50.802;4.350;2022-12-18T10:32:23;11.40;;;8.18;;
22490;SDS011;11412;50.802;4.350;2022-12-18T10:34:54;12.05;;;8.20;;
22490;SDS011;11412;50.802;4.350;2022-12-18T10:37:23;13.63;;;8.55;;
22490;SDS011;11412;50.802;4.350;2022-12-18T10:42:40;14.20;;;9.05;;
22490;SDS011;11412;50.802;4.350;2022-12-18T10:47:41;12.15;;;8.27;;
22490;SDS011;11412;50.802;4.350;2022-12-18T10:50:33;12.48;;;8.85;;
22490;SDS011;11412;50.802;4.350;2022-12-18T10:52:59;13.63;;;8.70;;
22490;SDS011;11412;50.802;4.350;2022-12-18T10:55:48;12.98;;;8.88;;
22490;SDS011;11412;50.802;4.350;2022-12-18T10:58:25;13.93;;;9.48;;
22490;SDS011;11412;50.802;4.350;2022-12-18T11:03:41;14.85;;;9.60;;
22490;SDS011;11412;50.802;4.350;2022-12-18T11:06:20;12.93;;;8.63;;
22490;SDS011;11412;50.802;4.350;2022-12-18T11:09:23;13.68;;;8.70;;
22490;SDS011;11412;50.802;4.350;2022-12-18T11:11:52;13.73;;;9.00;;
22490;SDS011;11412;50.802;4.350;2022-12-18T11:14:29;13.25;;;8.82;;
22490;SDS011;11412;50.802;4.350;2022-12-18T11:17:16;14.73;;;9.18;;
22490;SDS011;11412;50.802;4.350;2022-12-18T11:19:59;14.02;;;9.13;;
22490;SDS011;11412;50.802;4.350;2022-12-18T11:22:36;14.88;;;9.73;;
22490;SDS011;11412;50.802;4.350;2022-12-18T11:25:07;13.67;;;9.10;;
22490;SDS011;11412;50.802;4.350;2022-12-18T11:27:56;14.07;;;9.73;;
22490;SDS011;11412;50.802;4.350;2022-12-18T11:32:59;15.23;;;10.07;;
22490;SDS011;11412;50.802;4.350;2022-12-18T11:35:51;14.07;;;9.52;;
22490;SDS011;11412;50.802;4.350;2022-12-18T11:43:25;17.20;;;10.18;;
22490;SDS011;11412;50.802;4.350;2022-12-18T11:46:17;18.65;;;11.32;;
22490;SDS011;11412;50.802;4.350;2022-12-18T11:49:15;16.65;;;10.25;;
22490;SDS011;11412;50.802;4.350;2022-12-18T11:54:28;14.70;;;10.48;;
22490;SDS011;11412;50.802;4.350;2022-12-18T11:59:35;17.90;;;10.45;;
22490;SDS011;11412;50.802;4.350;2022-12-18T12:04:59;16.35;;;10.35;;
22490;SDS011;11412;50.802;4.350;2022-12-18T12:20:58;14.32;;;10.32;;
22490;SDS011;11412;50.802;4.350;2022-12-18T12:36:46;18.25;;;10.82;;
22490;SDS011;11412;50.802;4.350;2022-12-18T12:39:37;32.83;;;18.13;;
22490;SDS011;11412;50.802;4.350;2022-12-18T12:42:05;20.67;;;11.60;;
22490;SDS011;11412;50.802;4.350;2022-12-18T12:45:04;18.35;;;10.95;;
22490;SDS011;11412;50.802;4.350;2022-12-18T12:47:32;18.27;;;10.77;;
22490;SDS011;11412;50.802;4.350;2022-12-18T12:50:03;16.20;;;10.55;;
22490;SDS011;11412;50.802;4.350;2022-12-18T12:52:38;19.75;;;12.07;;
22490;SDS011;11412;50.802;4.350;2022-12-18T12:55:12;16.75;;;10.90;;
22490;SDS011;11412;50.802;4.350;2022-12-18T12:57:45;22.42;;;11.40;;
22490;SDS011;11412;50.802;4.350;2022-12-18T13:00:21;25.60;;;12.88;;
22490;SDS011;11412;50.802;4.350;2022-12-18T13:08:06;21.08;;;13.00;;
22490;SDS011;11412;50.802;4.350;2022-12-18T13:13:13;21.95;;;12.85;;
22490;SDS011;11412;50.802;4.350;2022-12-18T13:18:23;20.55;;;12.65;;
22490;SDS011;11412;50.802;4.350;2022-12-18T13:20:51;24.55;;;13.02;;
22490;SDS011;11412;50.802;4.350;2022-12-18T13:25:54;22.30;;;13.35;;
22490;SDS011;11412;50.802;4.350;2022-12-18T13:30:59;22.85;;;13.60;;
22490;SDS011;11412;50.802;4.350;2022-12-18T13:35:55;22.88;;;13.98;;
22490;SDS011;11412;50.802;4.350;2022-12-18T13:38:38;24.00;;;14.85;;
22490;SDS011;11412;50.802;4.350;2022-12-18T13:43:43;23.63;;;14.02;;
22490;SDS011;11412;50.802;4.350;2022-12-18T13:46:20;23.85;;;14.55;;
22490;SDS011;11412;50.802;4.350;2022-12-18T13:49:21;28.23;;;15.45;;
22490;SDS011;11412;50.802;4.350;2022-12-18T13:52:01;29.48;;;16.33;;
22490;SDS011;11412;50.802;4.350;2022-12-18T13:56:59;24.92;;;15.40;;
22490;SDS011;11412;50.802;4.350;2022-12-18T13:59:26;26.52;;;16.15;;
22490;SDS011;11412;50.802;4.350;2022-12-18T14:01:59;27.52;;;15.70;;
22490;SDS011;11412;50.802;4.350;2022-12-18T14:04:34;24.30;;;14.30;;
22490;SDS011;11412;50.802;4.350;2022-12-18T14:07:04;26.38;;;15.80;;
22490;SDS011;11412;50.802;4.350;2022-12-18T14:12:15;26.27;;;16.42;;
22490;SDS011;11412;50.802;4.350;2022-12-18T14:15:09;32.45;;;16.50;;
22490;SDS011;11412;50.802;4.350;2022-12-18T14:17:50;32.03;;;17.70;;
22490;SDS011;11412;50.802;4.350;2022-12-18T14:20:20;25.30;;;15.50;;
22490;SDS011;11412;50.802;4.350;2022-12-18T14:22:48;29.58;;;16.30;;
22490;SDS011;11412;50.802;4.350;2022-12-18T14:25:17;25.85;;;16.35;;
22490;SDS011;11412;50.802;4.350;2022-12-18T14:27:50;28.30;;;16.48;;
22490;SDS011;11412;50.802;4.350;2022-12-18T14:30:38;25.15;;;15.55;;
22490;SDS011;11412;50.802;4.350;2022-12-18T14:33:09;27.45;;;16.38;;
22490;SDS011;11412;50.802;4.350;2022-12-18T14:35:43;26.88;;;15.77;;
22490;SDS011;11412;50.802;4.350;2022-12-18T14:38:29;25.10;;;16.13;;
22490;SDS011;11412;50.802;4.350;2022-12-18T14:41:01;33.47;;;17.38;;
22490;SDS011;11412;50.802;4.350;2022-12-18T14:43:31;24.77;;;14.63;;
22490;SDS011;11412;50.802;4.350;2022-12-18T14:45:58;31.88;;;16.23;;
22490;SDS011;11412;50.802;4.350;2022-12-18T14:48:35;27.90;;;15.43;;
22490;SDS011;11412;50.802;4.350;2022-12-18T14:51:19;25.58;;;15.98;;
22490;SDS011;11412;50.802;4.350;2022-12-18T14:53:47;27.15;;;16.85;;
22490;SDS011;11412;50.802;4.350;2022-12-18T14:56:21;28.52;;;17.25;;
22490;SDS011;11412;50.802;4.350;2022-12-18T14:58:49;31.45;;;17.15;;
22490;SDS011;11412;50.802;4.350;2022-12-18T15:01:22;29.42;;;17.27;;
22490;SDS011;11412;50.802;4.350;2022-12-18T15:03:51;28.23;;;15.68;;
22490;SDS011;11412;50.802;4.350;2022-12-18T15:06:24;29.00;;;16.38;;
22490;SDS011;11412;50.802;4.350;2022-12-18T15:08:51;27.52;;;15.90;;
22490;SDS011;11412;50.802;4.350;2022-12-18T15:11:32;25.77;;;15.77;;
22490;SDS011;11412;50.802;4.350;2022-12-18T15:17:14;29.83;;;15.90;;
22490;SDS011;11412;50.802;4.350;2022-12-18T15:19:46;29.33;;;16.60;;
22490;SDS011;11412;50.802;4.350;2022-12-18T15:22:20;28.27;;;16.85;;
22490;SDS011;11412;50.802;4.350;2022-12-18T15:24:51;26.83;;;15.85;;
22490;SDS011;11412;50.802;4.350;2022-12-18T15:27:26;31.63;;;16.55;;
22490;SDS011;11412;50.802;4.350;2022-12-18T15:32:35;29.33;;;16.70;;
22490;SDS011;11412;50.802;4.350;2022-12-18T15:37:39;30.70;;;17.15;;
22490;SDS011;11412;50.802;4.350;2022-12-18T15:40:04;32.42;;;17.40;;
22490;SDS011;11412;50.802;4.350;2022-12-18T15:42:31;31.95;;;18.67;;
22490;SDS011;11412;50.802;4.350;2022-12-18T15:47:41;30.83;;;17.60;;
22490;SDS011;11412;50.802;4.350;2022-12-18T15:50:07;30.50;;;17.60;;
22490;SDS011;11412;50.802;4.350;2022-12-18T15:52:36;29.58;;;17.13;;
22490;SDS011;11412;50.802;4.350;2022-12-18T15:55:13;30.00;;;16.88;;
22490;SDS011;11412;50.802;4.350;2022-12-18T15:57:59;27.48;;;16.23;;
22490;SDS011;11412;50.802;4.350;2022-12-18T16:00:25;26.23;;;15.70;;
22490;SDS011;11412;50.802;4.350;2022-12-18T16:02:51;27.92;;;16.45;;
22490;SDS011;11412;50.802;4.350;2022-12-18T16:05:17;27.67;;;16.52;;
22490;SDS011;11412;50.802;4.350;2022-12-18T16:07:44;30.92;;;16.17;;
22490;SDS011;11412;50.802;4.350;2022-12-18T16:10:10;26.30;;;15.85;;
22490;SDS011;11412;50.802;4.350;2022-12-18T16:12:36;30.67;;;15.55;;
22490;SDS011;11412;50.802;4.350;2022-12-18T16:15:02;25.05;;;15.43;;
22490;SDS011;11412;50.802;4.350;2022-12-18T16:17:29;25.92;;;15.48;;
22490;SDS011;11412;50.802;4.350;2022-12-18T16:19:55;26.23;;;14.98;;
22490;SDS011;11412;50.802;4.350;2022-12-18T16:22:22;26.45;;;15.15;;
22490;SDS011;11412;50.802;4.350;2022-12-18T16:24:50;29.33;;;16.08;;
22490;SDS011;11412;50.802;4.350;2022-12-18T16:27:16;28.35;;;16.27;;
22490;SDS011;11412;50.802;4.350;2022-12-18T16:29:43;27.45;;;15.48;;
22490;SDS011;11412;50.802;4.350;2022-12-18T16:32:11;27.98;;;15.75;;
22490;SDS011;11412;50.802;4.350;2022-12-18T16:34:39;30.17;;;16.15;;
22490;SDS011;11412;50.802;4.350;2022-12-18T16:37:05;27.15;;;14.95;;
22490;SDS011;11412;50.802;4.350;2022-12-18T16:39:33;26.25;;;14.85;;
22490;SDS011;11412;50.802;4.350;2022-12-18T16:41:59;26.88;;;16.40;;
22490;SDS011;11412;50.802;4.350;2022-12-18T16:44:26;30.20;;;17.58;;
22490;SDS011;11412;50.802;4.350;2022-12-18T16:46:52;28.33;;;15.90;;
22490;SDS011;11412;50.802;4.350;2022-12-18T16:49:18;27.65;;;15.75;;
22490;SDS011;11412;50.802;4.350;2022-12-18T16:51:47;24.25;;;14.18;;
22490;SDS011;11412;50.802;4.350;2022-12-18T16:54:13;25.85;;;14.73;;
22490;SDS011;11412;50.802;4.350;2022-12-18T16:56:39;25.33;;;13.77;;
22490;SDS011;11412;50.802;4.350;2022-12-18T16:59:06;23.92;;;14.52;;
22490;SDS011;11412;50.802;4.350;2022-12-18T17:01:34;31.95;;;15.70;;